Las Americas, República Dominicana

1:28 PM AST en Octubre 25, 2014 (GMT -0400)
Las Americas International | Change Station
CLOSE
Current Station
Aeropuerto
Location: Las Americas,
Altura: 59 ft
Estaciones meteorológicas cercanas

Alt 59 ft 18.43 °N, 69.67 °W | Updated 28 minutes ago

Mostly Cloudy
Muy nublado
88 ° F
Sensación térmica 98 ° F
N
10
Viento Variable Viento desde SSE

Hoy
Alta -- | Baja -- ° F
--% Posibilidad de precipitaciones
Ayer
Alta -- | Baja -- ° F
Precip. -- pul
6:35 AM 6:09 PM
Creciente, 4% visible
Presión 29.86 pul
Visibilidad 6.2 Millas
Nubes Muy nublado 2200 ft
Índice de calor 98 ° F
Punto de rocío 75 ° F
Humedad 66%
Precipitaciones 0.00 pul
Espesor de la nieve No disponible.
UV 8 de una escala de 12
Polen No disponible.
Calidad del aire No disponible.
Flu Activity No disponible.
METAR MDSD 251700Z 15009KT 9999 BKN022 31/24 Q1011

More Conditions Fewer Conditions

Presión 29.86 pul
Visibilidad 6.2 Millas
Nubes Muy nublado 2200 ft
Índice de calor 98 ° F
Punto de rocío 75 ° F
Humedad 66%
Precipitaciones 0.00 pul
Espesor de la nieve No disponible.
UV 8 de una escala de 12
Polen No disponible.
Calidad del aire No disponible.
Flu Activity No disponible.
METAR MDSD 251700Z 15009KT 9999 BKN022 31/24 Q1011

More Conditions Fewer Conditions

10-Day Weather Forecast

Almanac

Astronomía

Oct. 25, 2014 Salida Puesta
Hora real 6:35 AM AST 6:09 PM AST
Crepúsculo civil 6:13 AM AST 6:31 PM AST
Crepúsculo náutico 5:47 AM AST 6:57 PM AST
Crepúsculo astronómico 5:22 AM AST 7:23 PM AST
Luna 8:01 AM AST 7:41 PM AST
Horas de luz 12h 18m
Horas de luz
11h 34m
Tomorrow will be 0m 56s shorter.
Creciente, 4% of the Moon is Illuminated
Hoy
Creciente
Oct 30
Cuarto creciente
Nov 6
Luna llena
Nov 14
Cuarto menguante
Nov 22
Nueva

Extremos de hoy

Máximos del país Bajas del país

Community

WunderPhotos

Upload Photos

1,764,918 ¡fotos cargadas!

Nearby

Calidad del aire

Not available.

Grosos de nieve

Not available.

Actividad de terremotos

Ciudad Distance Mag. Tiempo y dato
No hay informes recientes de la actividad sísmica.
Magnitud mínima muestra es 2,5.

Temperaturas de aguas costeras

Lugar Temperatura
Sin partes meteorológicos de las estaciones

Estaciones meteorológicas cercanas